sensor_id;sensor_type;location;lat;lon;timestamp;temperature;humidity
30304;DHT22;17112;48.636;10.152;2023-07-22T00:00:50;16.00;59.10
30304;DHT22;17112;48.636;10.152;2023-07-22T00:03:15;15.90;59.00
30304;DHT22;17112;48.636;10.152;2023-07-22T00:05:41;15.90;59.20
30304;DHT22;17112;48.636;10.152;2023-07-22T00:08:07;15.90;59.40
30304;DHT22;17112;48.636;10.152;2023-07-22T00:10:33;15.80;59.40
30304;DHT22;17112;48.636;10.152;2023-07-22T00:12:58;15.80;59.50
30304;DHT22;17112;48.636;10.152;2023-07-22T00:15:24;15.80;59.50
30304;DHT22;17112;48.636;10.152;2023-07-22T00:17:51;15.80;59.40
30304;DHT22;17112;48.636;10.152;2023-07-22T00:20:17;15.80;59.60
30304;DHT22;17112;48.636;10.152;2023-07-22T00:22:43;15.80;59.50
30304;DHT22;17112;48.636;10.152;2023-07-22T00:25:12;15.70;59.40
30304;DHT22;17112;48.636;10.152;2023-07-22T00:27:39;15.70;59.50
30304;DHT22;17112;48.636;10.152;2023-07-22T00:30:08;15.70;59.20
30304;DHT22;17112;48.636;10.152;2023-07-22T00:32:34;15.60;59.30
30304;DHT22;17112;48.636;10.152;2023-07-22T00:35:04;15.60;59.20
30304;DHT22;17112;48.636;10.152;2023-07-22T00:37:31;15.60;59.40
30304;DHT22;17112;48.636;10.152;2023-07-22T00:39:56;15.50;59.60
30304;DHT22;17112;48.636;10.152;2023-07-22T00:42:22;15.50;59.80
30304;DHT22;17112;48.636;10.152;2023-07-22T00:44:48;15.50;60.00
30304;DHT22;17112;48.636;10.152;2023-07-22T00:47:13;15.40;60.00
30304;DHT22;17112;48.636;10.152;2023-07-22T00:49:40;15.40;60.00
30304;DHT22;17112;48.636;10.152;2023-07-22T00:52:06;15.40;60.10
30304;DHT22;17112;48.636;10.152;2023-07-22T00:54:32;15.40;60.20
30304;DHT22;17112;48.636;10.152;2023-07-22T00:56:58;15.40;60.00
30304;DHT22;17112;48.636;10.152;2023-07-22T00:59:27;15.40;59.80
30304;DHT22;17112;48.636;10.152;2023-07-22T01:01:53;15.40;59.90
30304;DHT22;17112;48.636;10.152;2023-07-22T01:04:19;15.30;59.60
30304;DHT22;17112;48.636;10.152;2023-07-22T01:06:48;15.20;59.60
30304;DHT22;17112;48.636;10.152;2023-07-22T01:09:14;15.20;59.80
30304;DHT22;17112;48.636;10.152;2023-07-22T01:11:40;15.20;60.00
30304;DHT22;17112;48.636;10.152;2023-07-22T01:14:06;15.20;60.10
30304;DHT22;17112;48.636;10.152;2023-07-22T01:16:33;15.10;60.00
30304;DHT22;17112;48.636;10.152;2023-07-22T01:18:59;15.10;60.00
30304;DHT22;17112;48.636;10.152;2023-07-22T01:21:26;15.10;60.10
30304;DHT22;17112;48.636;10.152;2023-07-22T01:23:53;15.10;60.20
30304;DHT22;17112;48.636;10.152;2023-07-22T01:26:19;15.00;60.20
30304;DHT22;17112;48.636;10.152;2023-07-22T01:28:45;15.00;60.20
30304;DHT22;17112;48.636;10.152;2023-07-22T01:31:11;15.00;60.30
30304;DHT22;17112;48.636;10.152;2023-07-22T01:33:37;15.00;60.50
30304;DHT22;17112;48.636;10.152;2023-07-22T01:36:03;15.00;60.60
30304;DHT22;17112;48.636;10.152;2023-07-22T01:38:30;15.00;60.80
30304;DHT22;17112;48.636;10.152;2023-07-22T01:40:56;15.00;60.90
30304;DHT22;17112;48.636;10.152;2023-07-22T01:43:22;15.00;60.80
30304;DHT22;17112;48.636;10.152;2023-07-22T01:45:48;15.00;60.70
30304;DHT22;17112;48.636;10.152;2023-07-22T01:48:13;14.90;60.50
30304;DHT22;17112;48.636;10.152;2023-07-22T01:50:39;14.90;60.40
30304;DHT22;17112;48.636;10.152;2023-07-22T01:53:05;14.90;60.40
30304;DHT22;17112;48.636;10.152;2023-07-22T01:55:31;14.80;60.40
30304;DHT22;17112;48.636;10.152;2023-07-22T01:57:58;14.80;60.50
30304;DHT22;17112;48.636;10.152;2023-07-22T02:00:24;14.80;60.70
30304;DHT22;17112;48.636;10.152;2023-07-22T02:02:49;14.70;60.80
30304;DHT22;17112;48.636;10.152;2023-07-22T02:05:15;14.70;61.00
30304;DHT22;17112;48.636;10.152;2023-07-22T02:07:41;14.60;61.10
30304;DHT22;17112;48.636;10.152;2023-07-22T02:10:07;14.60;61.30
30304;DHT22;17112;48.636;10.152;2023-07-22T02:12:33;14.60;61.30
30304;DHT22;17112;48.636;10.152;2023-07-22T02:14:59;14.60;61.30
30304;DHT22;17112;48.636;10.152;2023-07-22T02:17:25;14.60;61.60
30304;DHT22;17112;48.636;10.152;2023-07-22T02:19:51;14.60;61.70
30304;DHT22;17112;48.636;10.152;2023-07-22T02:22:17;14.60;61.70
30304;DHT22;17112;48.636;10.152;2023-07-22T02:24:43;14.60;61.60
30304;DHT22;17112;48.636;10.152;2023-07-22T02:27:08;14.60;61.60
30304;DHT22;17112;48.636;10.152;2023-07-22T02:29:34;14.60;61.70
30304;DHT22;17112;48.636;10.152;2023-07-22T02:32:00;14.60;61.50
30304;DHT22;17112;48.636;10.152;2023-07-22T02:34:26;14.60;61.50
30304;DHT22;17112;48.636;10.152;2023-07-22T02:36:52;14.60;61.50
30304;DHT22;17112;48.636;10.152;2023-07-22T02:39:18;14.50;61.40
30304;DHT22;17112;48.636;10.152;2023-07-22T02:41:43;14.50;61.40
30304;DHT22;17112;48.636;10.152;2023-07-22T02:44:09;14.50;61.40
30304;DHT22;17112;48.636;10.152;2023-07-22T02:46:35;14.50;61.40
30304;DHT22;17112;48.636;10.152;2023-07-22T02:49:00;14.40;61.40
30304;DHT22;17112;48.636;10.152;2023-07-22T02:51:26;14.40;61.60
30304;DHT22;17112;48.636;10.152;2023-07-22T02:53:52;14.40;61.60
30304;DHT22;17112;48.636;10.152;2023-07-22T02:56:17;14.40;61.50
30304;DHT22;17112;48.636;10.152;2023-07-22T02:58:43;14.40;61.70
30304;DHT22;17112;48.636;10.152;2023-07-22T03:01:09;14.40;61.70
30304;DHT22;17112;48.636;10.152;2023-07-22T03:03:36;14.30;61.70
30304;DHT22;17112;48.636;10.152;2023-07-22T03:06:02;14.30;61.80
30304;DHT22;17112;48.636;10.152;2023-07-22T03:08:29;14.30;62.00
30304;DHT22;17112;48.636;10.152;2023-07-22T03:10:55;14.30;62.20
30304;DHT22;17112;48.636;10.152;2023-07-22T03:13:21;14.30;62.30
30304;DHT22;17112;48.636;10.152;2023-07-22T03:15:47;14.30;62.40
30304;DHT22;17112;48.636;10.152;2023-07-22T03:18:12;14.30;62.40
30304;DHT22;17112;48.636;10.152;2023-07-22T03:20:39;14.30;62.40
30304;DHT22;17112;48.636;10.152;2023-07-22T03:23:05;14.30;62.30
30304;DHT22;17112;48.636;10.152;2023-07-22T03:25:32;14.20;62.20
30304;DHT22;17112;48.636;10.152;2023-07-22T03:28:02;14.20;62.10
30304;DHT22;17112;48.636;10.152;2023-07-22T03:30:28;14.20;62.50
30304;DHT22;17112;48.636;10.152;2023-07-22T03:32:54;14.10;62.40
30304;DHT22;17112;48.636;10.152;2023-07-22T03:35:20;14.10;62.40
30304;DHT22;17112;48.636;10.152;2023-07-22T03:37:46;14.10;62.50
30304;DHT22;17112;48.636;10.152;2023-07-22T03:40:11;14.10;62.60
30304;DHT22;17112;48.636;10.152;2023-07-22T03:42:43;14.10;62.50
30304;DHT22;17112;48.636;10.152;2023-07-22T03:45:09;14.10;62.50
30304;DHT22;17112;48.636;10.152;2023-07-22T03:47:39;14.10;62.40
30304;DHT22;17112;48.636;10.152;2023-07-22T03:50:06;14.10;62.40
30304;DHT22;17112;48.636;10.152;2023-07-22T03:52:32;14.00;62.30
30304;DHT22;17112;48.636;10.152;2023-07-22T03:54:58;14.00;62.50
30304;DHT22;17112;48.636;10.152;2023-07-22T03:57:27;14.00;62.60
30304;DHT22;17112;48.636;10.152;2023-07-22T03:59:56;14.00;62.90
30304;DHT22;17112;48.636;10.152;2023-07-22T04:02:22;13.90;62.70
30304;DHT22;17112;48.636;10.152;2023-07-22T04:04:49;13.90;62.50
30304;DHT22;17112;48.636;10.152;2023-07-22T04:07:15;13.90;62.70
30304;DHT22;17112;48.636;10.152;2023-07-22T04:09:41;13.90;62.90
30304;DHT22;17112;48.636;10.152;2023-07-22T04:12:07;13.90;63.10
30304;DHT22;17112;48.636;10.152;2023-07-22T04:14:33;13.90;63.10
30304;DHT22;17112;48.636;10.152;2023-07-22T04:16:58;13.90;62.90
30304;DHT22;17112;48.636;10.152;2023-07-22T04:19:24;13.90;62.80
30304;DHT22;17112;48.636;10.152;2023-07-22T04:21:50;13.90;62.80
30304;DHT22;17112;48.636;10.152;2023-07-22T04:24:15;13.90;62.80
30304;DHT22;17112;48.636;10.152;2023-07-22T04:26:44;13.90;62.80
30304;DHT22;17112;48.636;10.152;2023-07-22T04:29:10;13.90;63.10
30304;DHT22;17112;48.636;10.152;2023-07-22T04:31:37;13.90;63.10
30304;DHT22;17112;48.636;10.152;2023-07-22T04:34:03;13.90;63.30
30304;DHT22;17112;48.636;10.152;2023-07-22T04:36:29;13.90;63.40
30304;DHT22;17112;48.636;10.152;2023-07-22T04:38:54;13.90;63.70
30304;DHT22;17112;48.636;10.152;2023-07-22T04:41:20;14.00;63.80
30304;DHT22;17112;48.636;10.152;2023-07-22T04:43:46;14.10;64.00
30304;DHT22;17112;48.636;10.152;2023-07-22T04:46:13;14.10;64.10
30304;DHT22;17112;48.636;10.152;2023-07-22T04:48:38;14.20;64.00
30304;DHT22;17112;48.636;10.152;2023-07-22T04:51:04;14.20;63.90
30304;DHT22;17112;48.636;10.152;2023-07-22T04:53:30;14.30;63.90
30304;DHT22;17112;48.636;10.152;2023-07-22T04:55:55;14.40;64.00
30304;DHT22;17112;48.636;10.152;2023-07-22T04:58:21;14.50;63.90
30304;DHT22;17112;48.636;10.152;2023-07-22T05:00:47;14.50;63.80
30304;DHT22;17112;48.636;10.152;2023-07-22T05:03:14;14.60;63.80
30304;DHT22;17112;48.636;10.152;2023-07-22T05:05:40;14.70;63.80
30304;DHT22;17112;48.636;10.152;2023-07-22T05:08:05;14.70;63.80
30304;DHT22;17112;48.636;10.152;2023-07-22T05:10:33;14.80;63.80
30304;DHT22;17112;48.636;10.152;2023-07-22T05:12:59;14.90;63.80
30304;DHT22;17112;48.636;10.152;2023-07-22T05:15:25;14.90;64.00
30304;DHT22;17112;48.636;10.152;2023-07-22T05:17:51;15.00;63.90
30304;DHT22;17112;48.636;10.152;2023-07-22T05:20:17;15.10;63.70
30304;DHT22;17112;48.636;10.152;2023-07-22T05:22:42;15.20;63.60
30304;DHT22;17112;48.636;10.152;2023-07-22T05:25:08;15.30;63.60
30304;DHT22;17112;48.636;10.152;2023-07-22T05:27:35;15.40;63.70
30304;DHT22;17112;48.636;10.152;2023-07-22T05:30:01;15.50;63.80
30304;DHT22;17112;48.636;10.152;2023-07-22T05:32:29;15.60;63.80
30304;DHT22;17112;48.636;10.152;2023-07-22T05:34:55;15.70;64.00
30304;DHT22;17112;48.636;10.152;2023-07-22T05:37:22;15.80;63.90
30304;DHT22;17112;48.636;10.152;2023-07-22T05:39:48;15.90;63.80
30304;DHT22;17112;48.636;10.152;2023-07-22T05:42:14;16.00;63.70
30304;DHT22;17112;48.636;10.152;2023-07-22T05:44:39;16.20;63.50
30304;DHT22;17112;48.636;10.152;2023-07-22T05:47:05;16.30;63.40
30304;DHT22;17112;48.636;10.152;2023-07-22T05:49:31;16.40;63.10
30304;DHT22;17112;48.636;10.152;2023-07-22T05:51:56;16.50;62.90
30304;DHT22;17112;48.636;10.152;2023-07-22T05:54:22;16.60;62.60
30304;DHT22;17112;48.636;10.152;2023-07-22T05:56:48;16.70;62.60
30304;DHT22;17112;48.636;10.152;2023-07-22T05:59:13;16.80;62.50
30304;DHT22;17112;48.636;10.152;2023-07-22T06:01:39;17.00;62.50
30304;DHT22;17112;48.636;10.152;2023-07-22T06:04:06;17.10;62.30
30304;DHT22;17112;48.636;10.152;2023-07-22T06:06:31;17.30;62.40
30304;DHT22;17112;48.636;10.152;2023-07-22T06:08:57;17.40;62.00
30304;DHT22;17112;48.636;10.152;2023-07-22T06:11:23;17.50;62.00
30304;DHT22;17112;48.636;10.152;2023-07-22T06:13:48;17.60;61.90
30304;DHT22;17112;48.636;10.152;2023-07-22T06:16:14;17.80;61.60
30304;DHT22;17112;48.636;10.152;2023-07-22T06:18:40;17.90;61.50
30304;DHT22;17112;48.636;10.152;2023-07-22T06:21:05;18.10;61.40
30304;DHT22;17112;48.636;10.152;2023-07-22T06:23:31;18.20;61.30
30304;DHT22;17112;48.636;10.152;2023-07-22T06:25:57;18.40;61.00
30304;DHT22;17112;48.636;10.152;2023-07-22T06:28:22;18.60;60.60
30304;DHT22;17112;48.636;10.152;2023-07-22T06:30:48;18.70;60.00
30304;DHT22;17112;48.636;10.152;2023-07-22T06:33:14;18.80;59.80
30304;DHT22;17112;48.636;10.152;2023-07-22T06:35:39;18.90;59.60
30304;DHT22;17112;48.636;10.152;2023-07-22T06:38:05;19.10;59.80
30304;DHT22;17112;48.636;10.152;2023-07-22T06:40:31;19.20;59.50
30304;DHT22;17112;48.636;10.152;2023-07-22T06:42:56;19.40;59.20
30304;DHT22;17112;48.636;10.152;2023-07-22T06:45:22;19.50;59.00
30304;DHT22;17112;48.636;10.152;2023-07-22T06:47:48;19.70;59.60
30304;DHT22;17112;48.636;10.152;2023-07-22T06:50:13;19.80;58.90
30304;DHT22;17112;48.636;10.152;2023-07-22T06:52:39;20.00;58.70
30304;DHT22;17112;48.636;10.152;2023-07-22T06:55:05;20.10;58.60
30304;DHT22;17112;48.636;10.152;2023-07-22T06:57:31;20.30;58.70
30304;DHT22;17112;48.636;10.152;2023-07-22T06:59:57;20.50;58.20
30304;DHT22;17112;48.636;10.152;2023-07-22T07:02:22;20.60;57.80
30304;DHT22;17112;48.636;10.152;2023-07-22T07:04:49;20.80;57.60
30304;DHT22;17112;48.636;10.152;2023-07-22T07:07:15;20.90;57.20
30304;DHT22;17112;48.636;10.152;2023-07-22T07:09:41;21.10;57.00
30304;DHT22;17112;48.636;10.152;2023-07-22T07:12:08;21.20;56.60
30304;DHT22;17112;48.636;10.152;2023-07-22T07:14:34;21.40;56.40
30304;DHT22;17112;48.636;10.152;2023-07-22T07:17:01;21.60;56.10
30304;DHT22;17112;48.636;10.152;2023-07-22T07:19:27;21.70;56.10
30304;DHT22;17112;48.636;10.152;2023-07-22T07:21:53;21.90;55.80
30304;DHT22;17112;48.636;10.152;2023-07-22T07:24:19;22.00;55.40
30304;DHT22;17112;48.636;10.152;2023-07-22T07:26:45;22.20;55.10
30304;DHT22;17112;48.636;10.152;2023-07-22T07:29:11;22.40;55.00
30304;DHT22;17112;48.636;10.152;2023-07-22T07:31:37;22.50;54.70
30304;DHT22;17112;48.636;10.152;2023-07-22T07:34:03;22.70;54.50
30304;DHT22;17112;48.636;10.152;2023-07-22T07:36:29;22.80;54.00
30304;DHT22;17112;48.636;10.152;2023-07-22T07:38:55;23.00;53.40
30304;DHT22;17112;48.636;10.152;2023-07-22T07:41:21;23.10;53.00
30304;DHT22;17112;48.636;10.152;2023-07-22T07:43:46;23.20;52.60
30304;DHT22;17112;48.636;10.152;2023-07-22T07:46:20;23.30;51.50
30304;DHT22;17112;48.636;10.152;2023-07-22T07:48:51;23.40;51.20
30304;DHT22;17112;48.636;10.152;2023-07-22T07:51:18;23.50;50.60
30304;DHT22;17112;48.636;10.152;2023-07-22T07:53:45;23.50;50.40
30304;DHT22;17112;48.636;10.152;2023-07-22T07:56:12;23.60;50.80
30304;DHT22;17112;48.636;10.152;2023-07-22T07:58:39;23.70;50.50
30304;DHT22;17112;48.636;10.152;2023-07-22T08:01:05;23.80;50.20
30304;DHT22;17112;48.636;10.152;2023-07-22T08:03:31;24.00;49.80
30304;DHT22;17112;48.636;10.152;2023-07-22T08:05:57;24.00;49.70
30304;DHT22;17112;48.636;10.152;2023-07-22T08:08:23;24.20;49.40
30304;DHT22;17112;48.636;10.152;2023-07-22T08:11:08;24.40;49.30
30304;DHT22;17112;48.636;10.152;2023-07-22T08:13:35;24.50;48.30
30304;DHT22;17112;48.636;10.152;2023-07-22T08:16:02;24.70;48.10
30304;DHT22;17112;48.636;10.152;2023-07-22T08:18:29;24.80;46.70
30304;DHT22;17112;48.636;10.152;2023-07-22T08:20:55;24.90;46.40
30304;DHT22;17112;48.636;10.152;2023-07-22T08:23:21;25.00;45.70
30304;DHT22;17112;48.636;10.152;2023-07-22T08:25:47;25.00;45.50
30304;DHT22;17112;48.636;10.152;2023-07-22T08:28:13;25.00;45.00
30304;DHT22;17112;48.636;10.152;2023-07-22T08:30:39;24.90;44.40
30304;DHT22;17112;48.636;10.152;2023-07-22T08:33:06;24.80;44.00
30304;DHT22;17112;48.636;10.152;2023-07-22T08:35:35;24.60;43.80
30304;DHT22;17112;48.636;10.152;2023-07-22T08:38:02;24.50;43.40
30304;DHT22;17112;48.636;10.152;2023-07-22T08:40:38;24.40;43.80
30304;DHT22;17112;48.636;10.152;2023-07-22T08:43:05;24.20;43.30
30304;DHT22;17112;48.636;10.152;2023-07-22T08:45:32;24.10;44.00
30304;DHT22;17112;48.636;10.152;2023-07-22T08:48:08;24.00;43.70
30304;DHT22;17112;48.636;10.152;2023-07-22T08:50:44;24.00;43.90
30304;DHT22;17112;48.636;10.152;2023-07-22T08:53:13;23.90;43.10
30304;DHT22;17112;48.636;10.152;2023-07-22T08:55:39;24.00;43.70
30304;DHT22;17112;48.636;10.152;2023-07-22T08:58:11;24.00;44.70
30304;DHT22;17112;48.636;10.152;2023-07-22T09:00:38;24.10;45.40
30304;DHT22;17112;48.636;10.152;2023-07-22T09:03:04;24.30;44.70
30304;DHT22;17112;48.636;10.152;2023-07-22T09:05:34;24.50;44.80
30304;DHT22;17112;48.636;10.152;2023-07-22T09:08:02;24.80;44.40
30304;DHT22;17112;48.636;10.152;2023-07-22T09:10:29;25.10;43.70
30304;DHT22;17112;48.636;10.152;2023-07-22T09:12:55;25.30;43.00
30304;DHT22;17112;48.636;10.152;2023-07-22T09:15:21;25.50;42.40
30304;DHT22;17112;48.636;10.152;2023-07-22T09:17:49;25.70;41.10
30304;DHT22;17112;48.636;10.152;2023-07-22T09:20:14;25.70;40.70
30304;DHT22;17112;48.636;10.152;2023-07-22T09:22:48;25.90;40.60
30304;DHT22;17112;48.636;10.152;2023-07-22T09:25:25;25.90;39.40
30304;DHT22;17112;48.636;10.152;2023-07-22T09:27:52;26.10;39.10
30304;DHT22;17112;48.636;10.152;2023-07-22T09:30:35;26.20;38.20
30304;DHT22;17112;48.636;10.152;2023-07-22T09:33:03;26.40;38.10
30304;DHT22;17112;48.636;10.152;2023-07-22T09:35:51;26.50;37.20
30304;DHT22;17112;48.636;10.152;2023-07-22T09:38:23;26.50;37.90
30304;DHT22;17112;48.636;10.152;2023-07-22T09:40:49;26.40;37.30
30304;DHT22;17112;48.636;10.152;2023-07-22T09:43:16;26.40;37.50
30304;DHT22;17112;48.636;10.152;2023-07-22T09:45:46;26.30;37.60
30304;DHT22;17112;48.636;10.152;2023-07-22T09:48:12;26.20;36.60
30304;DHT22;17112;48.636;10.152;2023-07-22T09:50:38;26.00;37.00
30304;DHT22;17112;48.636;10.152;2023-07-22T09:53:04;25.90;37.40
30304;DHT22;17112;48.636;10.152;2023-07-22T09:55:31;25.80;38.20
30304;DHT22;17112;48.636;10.152;2023-07-22T09:57:59;25.70;37.70
30304;DHT22;17112;48.636;10.152;2023-07-22T10:00:31;25.70;37.90
30304;DHT22;17112;48.636;10.152;2023-07-22T10:02:58;25.60;37.50
30304;DHT22;17112;48.636;10.152;2023-07-22T10:05:25;25.50;37.90
30304;DHT22;17112;48.636;10.152;2023-07-22T10:07:53;25.40;37.90
30304;DHT22;17112;48.636;10.152;2023-07-22T10:10:21;25.40;38.50
30304;DHT22;17112;48.636;10.152;2023-07-22T10:12:48;25.30;38.90
30304;DHT22;17112;48.636;10.152;2023-07-22T10:15:15;25.40;38.90
30304;DHT22;17112;48.636;10.152;2023-07-22T10:17:42;25.50;38.80
30304;DHT22;17112;48.636;10.152;2023-07-22T10:20:09;25.60;38.10
30304;DHT22;17112;48.636;10.152;2023-07-22T10:22:42;25.80;39.10
30304;DHT22;17112;48.636;10.152;2023-07-22T10:25:08;26.10;38.70
30304;DHT22;17112;48.636;10.152;2023-07-22T10:27:36;26.40;38.20
30304;DHT22;17112;48.636;10.152;2023-07-22T10:30:02;26.60;37.80
30304;DHT22;17112;48.636;10.152;2023-07-22T10:32:46;26.90;37.70
30304;DHT22;17112;48.636;10.152;2023-07-22T10:35:17;27.10;37.00
30304;DHT22;17112;48.636;10.152;2023-07-22T10:37:47;27.30;36.40
30304;DHT22;17112;48.636;10.152;2023-07-22T10:40:28;27.40;36.10
30304;DHT22;17112;48.636;10.152;2023-07-22T10:43:03;27.40;34.60
30304;DHT22;17112;48.636;10.152;2023-07-22T10:45:35;27.50;34.80
30304;DHT22;17112;48.636;10.152;2023-07-22T10:48:12;27.50;34.90
30304;DHT22;17112;48.636;10.152;2023-07-22T10:53:12;27.60;34.80
30304;DHT22;17112;48.636;10.152;2023-07-22T11:01:35;28.00;34.60
30304;DHT22;17112;48.636;10.152;2023-07-22T11:14:51;28.40;32.00
30304;DHT22;17112;48.636;10.152;2023-07-22T11:17:28;28.30;31.10
30304;DHT22;17112;48.636;10.152;2023-07-22T11:19:56;28.20;32.20
30304;DHT22;17112;48.636;10.152;2023-07-22T11:22:22;28.00;31.20
30304;DHT22;17112;48.636;10.152;2023-07-22T11:24:48;27.90;31.50
30304;DHT22;17112;48.636;10.152;2023-07-22T11:27:15;27.70;31.40
30304;DHT22;17112;48.636;10.152;2023-07-22T11:29:41;27.60;32.80
30304;DHT22;17112;48.636;10.152;2023-07-22T11:32:14;27.60;32.60
30304;DHT22;17112;48.636;10.152;2023-07-22T11:34:44;27.80;32.90
30304;DHT22;17112;48.636;10.152;2023-07-22T11:37:10;27.90;33.50
30304;DHT22;17112;48.636;10.152;2023-07-22T11:39:36;28.10;34.30
30304;DHT22;17112;48.636;10.152;2023-07-22T11:42:04;28.30;33.40
30304;DHT22;17112;48.636;10.152;2023-07-22T11:44:30;28.50;32.50
30304;DHT22;17112;48.636;10.152;2023-07-22T11:47:03;28.70;31.30
30304;DHT22;17112;48.636;10.152;2023-07-22T11:49:30;28.80;30.50
30304;DHT22;17112;48.636;10.152;2023-07-22T11:52:01;28.80;30.60
30304;DHT22;17112;48.636;10.152;2023-07-22T11:54:28;28.80;30.30
30304;DHT22;17112;48.636;10.152;2023-07-22T11:56:55;28.70;30.40
30304;DHT22;17112;48.636;10.152;2023-07-22T11:59:54;28.60;30.40
30304;DHT22;17112;48.636;10.152;2023-07-22T12:02:26;28.60;30.10
30304;DHT22;17112;48.636;10.152;2023-07-22T12:05:00;28.60;30.90
30304;DHT22;17112;48.636;10.152;2023-07-22T12:07:30;28.70;30.50
30304;DHT22;17112;48.636;10.152;2023-07-22T12:09:58;28.70;30.20
30304;DHT22;17112;48.636;10.152;2023-07-22T12:12:33;28.70;30.70
30304;DHT22;17112;48.636;10.152;2023-07-22T12:18:03;28.60;29.70
30304;DHT22;17112;48.636;10.152;2023-07-22T12:20:31;28.60;30.20
30304;DHT22;17112;48.636;10.152;2023-07-22T12:22:58;28.60;30.20
30304;DHT22;17112;48.636;10.152;2023-07-22T12:25:25;28.60;30.10
30304;DHT22;17112;48.636;10.152;2023-07-22T12:27:51;28.50;30.60
30304;DHT22;17112;48.636;10.152;2023-07-22T12:30:17;28.40;30.60
30304;DHT22;17112;48.636;10.152;2023-07-22T12:32:43;28.40;30.10
30304;DHT22;17112;48.636;10.152;2023-07-22T12:35:09;28.30;29.70
30304;DHT22;17112;48.636;10.152;2023-07-22T12:37:35;28.20;29.60
30304;DHT22;17112;48.636;10.152;2023-07-22T12:40:01;28.10;29.90
30304;DHT22;17112;48.636;10.152;2023-07-22T12:42:30;27.90;30.00
30304;DHT22;17112;48.636;10.152;2023-07-22T12:44:56;27.90;30.00
30304;DHT22;17112;48.636;10.152;2023-07-22T12:47:21;27.80;29.90
30304;DHT22;17112;48.636;10.152;2023-07-22T12:49:47;27.70;30.30
30304;DHT22;17112;48.636;10.152;2023-07-22T12:52:12;27.80;30.40
30304;DHT22;17112;48.636;10.152;2023-07-22T12:54:38;27.80;30.30
30304;DHT22;17112;48.636;10.152;2023-07-22T12:57:05;27.80;30.40
30304;DHT22;17112;48.636;10.152;2023-07-22T12:59:30;27.80;30.40
30304;DHT22;17112;48.636;10.152;2023-07-22T13:01:57;27.70;30.40
30304;DHT22;17112;48.636;10.152;2023-07-22T13:04:23;27.60;30.30
30304;DHT22;17112;48.636;10.152;2023-07-22T13:06:50;27.60;30.70
30304;DHT22;17112;48.636;10.152;2023-07-22T13:09:17;27.60;30.60
30304;DHT22;17112;48.636;10.152;2023-07-22T13:11:43;27.50;30.50
30304;DHT22;17112;48.636;10.152;2023-07-22T13:14:09;27.50;30.60
30304;DHT22;17112;48.636;10.152;2023-07-22T13:16:34;27.60;30.90
30304;DHT22;17112;48.636;10.152;2023-07-22T13:19:00;27.60;30.50
30304;DHT22;17112;48.636;10.152;2023-07-22T13:21:28;27.60;30.70
30304;DHT22;17112;48.636;10.152;2023-07-22T13:23:54;27.60;30.50
30304;DHT22;17112;48.636;10.152;2023-07-22T13:26:20;27.50;30.80
30304;DHT22;17112;48.636;10.152;2023-07-22T13:28:45;27.60;30.70
30304;DHT22;17112;48.636;10.152;2023-07-22T13:31:11;27.60;30.30
30304;DHT22;17112;48.636;10.152;2023-07-22T13:33:37;27.60;31.00
30304;DHT22;17112;48.636;10.152;2023-07-22T13:36:03;27.60;30.90
30304;DHT22;17112;48.636;10.152;2023-07-22T13:38:28;27.70;32.00
30304;DHT22;17112;48.636;10.152;2023-07-22T13:40:55;27.90;31.90
30304;DHT22;17112;48.636;10.152;2023-07-22T13:43:21;28.20;31.80
30304;DHT22;17112;48.636;10.152;2023-07-22T13:45:47;28.50;31.40
30304;DHT22;17112;48.636;10.152;2023-07-22T13:48:12;28.80;30.70
30304;DHT22;17112;48.636;10.152;2023-07-22T13:50:38;29.10;30.70
30304;DHT22;17112;48.636;10.152;2023-07-22T13:53:03;29.40;30.00
30304;DHT22;17112;48.636;10.152;2023-07-22T13:55:29;29.60;29.90
30304;DHT22;17112;48.636;10.152;2023-07-22T13:57:55;29.90;29.40
30304;DHT22;17112;48.636;10.152;2023-07-22T14:00:20;30.00;28.60
30304;DHT22;17112;48.636;10.152;2023-07-22T14:02:46;30.10;28.90
30304;DHT22;17112;48.636;10.152;2023-07-22T14:05:12;30.20;28.40
30304;DHT22;17112;48.636;10.152;2023-07-22T14:07:38;30.30;29.20
30304;DHT22;17112;48.636;10.152;2023-07-22T14:10:05;30.40;28.80
30304;DHT22;17112;48.636;10.152;2023-07-22T14:12:31;30.50;28.60
30304;DHT22;17112;48.636;10.152;2023-07-22T14:14:56;30.60;28.40
30304;DHT22;17112;48.636;10.152;2023-07-22T14:17:22;30.80;28.90
30304;DHT22;17112;48.636;10.152;2023-07-22T14:19:47;30.90;28.40
30304;DHT22;17112;48.636;10.152;2023-07-22T14:22:13;31.00;27.80
30304;DHT22;17112;48.636;10.152;2023-07-22T14:24:39;31.10;27.60
30304;DHT22;17112;48.636;10.152;2023-07-22T14:27:05;31.00;27.30
30304;DHT22;17112;48.636;10.152;2023-07-22T14:29:31;31.00;27.30
30304;DHT22;17112;48.636;10.152;2023-07-22T14:31:57;30.80;27.20
30304;DHT22;17112;48.636;10.152;2023-07-22T14:34:23;30.70;27.40
30304;DHT22;17112;48.636;10.152;2023-07-22T14:36:49;30.70;28.30
30304;DHT22;17112;48.636;10.152;2023-07-22T14:39:15;30.80;28.50
30304;DHT22;17112;48.636;10.152;2023-07-22T14:41:41;31.00;28.30
30304;DHT22;17112;48.636;10.152;2023-07-22T14:44:10;31.20;27.50
30304;DHT22;17112;48.636;10.152;2023-07-22T14:46:36;31.40;27.40
30304;DHT22;17112;48.636;10.152;2023-07-22T14:49:02;31.40;27.20
30304;DHT22;17112;48.636;10.152;2023-07-22T14:51:28;31.40;26.80
30304;DHT22;17112;48.636;10.152;2023-07-22T14:53:53;31.40;26.80
30304;DHT22;17112;48.636;10.152;2023-07-22T14:56:19;31.10;27.10
30304;DHT22;17112;48.636;10.152;2023-07-22T14:58:45;31.00;27.10
30304;DHT22;17112;48.636;10.152;2023-07-22T15:01:11;30.80;27.40
30304;DHT22;17112;48.636;10.152;2023-07-22T15:03:37;30.80;27.70
30304;DHT22;17112;48.636;10.152;2023-07-22T15:06:04;30.80;27.60
30304;DHT22;17112;48.636;10.152;2023-07-22T15:08:30;30.90;27.20
30304;DHT22;17112;48.636;10.152;2023-07-22T15:10:56;30.90;27.60
30304;DHT22;17112;48.636;10.152;2023-07-22T15:13:22;30.90;27.40
30304;DHT22;17112;48.636;10.152;2023-07-22T15:15:47;30.80;27.00
30304;DHT22;17112;48.636;10.152;2023-07-22T15:18:13;30.70;27.10
30304;DHT22;17112;48.636;10.152;2023-07-22T15:20:38;30.60;27.10
30304;DHT22;17112;48.636;10.152;2023-07-22T15:23:04;30.50;27.20
30304;DHT22;17112;48.636;10.152;2023-07-22T15:25:30;30.40;28.00
30304;DHT22;17112;48.636;10.152;2023-07-22T15:27:55;30.40;27.70
30304;DHT22;17112;48.636;10.152;2023-07-22T15:30:21;30.50;27.80
30304;DHT22;17112;48.636;10.152;2023-07-22T15:32:47;30.60;27.90
30304;DHT22;17112;48.636;10.152;2023-07-22T15:35:13;30.80;27.80